sensor_id;sensor_type;location;lat;lon;timestamp;temperature;humidity
66119;DHT22;52912;48.564;9.302;2023-07-08T00:00:18;24.30;45.44
66119;DHT22;52912;48.564;9.302;2023-07-08T00:02:44;24.34;45.34
66119;DHT22;52912;48.564;9.302;2023-07-08T00:05:10;24.25;45.49
66119;DHT22;52912;48.564;9.302;2023-07-08T00:07:36;24.22;45.55
66119;DHT22;52912;48.564;9.302;2023-07-08T00:10:10;24.16;45.65
66119;DHT22;52912;48.564;9.302;2023-07-08T00:12:36;24.17;45.58
66119;DHT22;52912;48.564;9.302;2023-07-08T00:15:02;24.17;45.53
66119;DHT22;52912;48.564;9.302;2023-07-08T00:17:29;24.15;45.72
66119;DHT22;52912;48.564;9.302;2023-07-08T00:19:54;24.09;45.85
66119;DHT22;52912;48.564;9.302;2023-07-08T00:22:20;24.04;46.04
66119;DHT22;52912;48.564;9.302;2023-07-08T00:24:45;23.99;46.05
66119;DHT22;52912;48.564;9.302;2023-07-08T00:27:11;24.01;46.14
66119;DHT22;52912;48.564;9.302;2023-07-08T00:29:37;23.97;46.35
66119;DHT22;52912;48.564;9.302;2023-07-08T00:32:09;23.97;46.45
66119;DHT22;52912;48.564;9.302;2023-07-08T00:34:36;24.04;46.57
66119;DHT22;52912;48.564;9.302;2023-07-08T00:37:02;23.94;46.64
66119;DHT22;52912;48.564;9.302;2023-07-08T00:39:27;23.89;46.98
66119;DHT22;52912;48.564;9.302;2023-07-08T00:41:53;23.88;47.08
66119;DHT22;52912;48.564;9.302;2023-07-08T00:44:19;23.82;47.11
66119;DHT22;52912;48.564;9.302;2023-07-08T00:46:50;23.77;47.45
66119;DHT22;52912;48.564;9.302;2023-07-08T00:49:28;23.85;47.24
66119;DHT22;52912;48.564;9.302;2023-07-08T00:52:17;23.70;47.45
66119;DHT22;52912;48.564;9.302;2023-07-08T00:54:42;23.70;47.75
66119;DHT22;52912;48.564;9.302;2023-07-08T00:57:08;23.72;47.74
66119;DHT22;52912;48.564;9.302;2023-07-08T00:59:38;23.78;47.61
66119;DHT22;52912;48.564;9.302;2023-07-08T01:02:07;23.72;47.74
66119;DHT22;52912;48.564;9.302;2023-07-08T01:04:37;23.75;47.77
66119;DHT22;52912;48.564;9.302;2023-07-08T01:07:04;23.65;48.15
66119;DHT22;52912;48.564;9.302;2023-07-08T01:09:34;23.57;48.26
66119;DHT22;52912;48.564;9.302;2023-07-08T01:12:03;23.43;48.72
66119;DHT22;52912;48.564;9.302;2023-07-08T01:14:31;23.54;48.36
66119;DHT22;52912;48.564;9.302;2023-07-08T01:16:58;23.51;48.63
66119;DHT22;52912;48.564;9.302;2023-07-08T01:19:24;23.43;49.11
66119;DHT22;52912;48.564;9.302;2023-07-08T01:21:59;23.12;49.73
66119;DHT22;52912;48.564;9.302;2023-07-08T01:24:25;22.96;49.87
66119;DHT22;52912;48.564;9.302;2023-07-08T01:26:51;22.88;49.99
66119;DHT22;52912;48.564;9.302;2023-07-08T01:29:17;22.92;50.04
66119;DHT22;52912;48.564;9.302;2023-07-08T01:31:42;23.15;48.84
66119;DHT22;52912;48.564;9.302;2023-07-08T01:34:10;23.12;49.28
66119;DHT22;52912;48.564;9.302;2023-07-08T01:36:39;23.13;49.01
66119;DHT22;52912;48.564;9.302;2023-07-08T01:39:11;23.10;49.33
66119;DHT22;52912;48.564;9.302;2023-07-08T01:41:36;23.01;49.92
66119;DHT22;52912;48.564;9.302;2023-07-08T01:44:02;22.79;50.81
66119;DHT22;52912;48.564;9.302;2023-07-08T01:46:27;22.91;50.49
66119;DHT22;52912;48.564;9.302;2023-07-08T01:48:55;22.75;50.65
66119;DHT22;52912;48.564;9.302;2023-07-08T01:51:22;22.69;51.05
66119;DHT22;52912;48.564;9.302;2023-07-08T01:53:49;22.53;51.60
66119;DHT22;52912;48.564;9.302;2023-07-08T01:56:16;22.36;51.79
66119;DHT22;52912;48.564;9.302;2023-07-08T01:58:41;22.30;52.06
66119;DHT22;52912;48.564;9.302;2023-07-08T02:01:07;22.28;52.01
66119;DHT22;52912;48.564;9.302;2023-07-08T02:03:33;22.24;52.00
66119;DHT22;52912;48.564;9.302;2023-07-08T02:05:58;22.13;52.62
66119;DHT22;52912;48.564;9.302;2023-07-08T02:08:24;22.19;52.56
66119;DHT22;52912;48.564;9.302;2023-07-08T02:10:51;22.14;52.80
66119;DHT22;52912;48.564;9.302;2023-07-08T02:13:19;22.23;52.02
66119;DHT22;52912;48.564;9.302;2023-07-08T02:15:44;22.14;52.97
66119;DHT22;52912;48.564;9.302;2023-07-08T02:18:10;22.06;52.68
66119;DHT22;52912;48.564;9.302;2023-07-08T02:20:35;22.57;50.93
66119;DHT22;52912;48.564;9.302;2023-07-08T02:23:01;22.81;50.45
66119;DHT22;52912;48.564;9.302;2023-07-08T02:25:26;22.81;50.77
66119;DHT22;52912;48.564;9.302;2023-07-08T02:27:52;22.99;50.09
66119;DHT22;52912;48.564;9.302;2023-07-08T02:30:19;22.85;50.44
66119;DHT22;52912;48.564;9.302;2023-07-08T02:32:44;22.75;51.12
66119;DHT22;52912;48.564;9.302;2023-07-08T02:35:10;22.69;51.28
66119;DHT22;52912;48.564;9.302;2023-07-08T02:37:35;22.68;51.23
66119;DHT22;52912;48.564;9.302;2023-07-08T02:40:01;22.85;50.70
66119;DHT22;52912;48.564;9.302;2023-07-08T02:42:26;22.61;51.78
66119;DHT22;52912;48.564;9.302;2023-07-08T02:44:52;22.50;52.23
66119;DHT22;52912;48.564;9.302;2023-07-08T02:47:18;22.39;52.70
66119;DHT22;52912;48.564;9.302;2023-07-08T02:49:44;22.24;52.78
66119;DHT22;52912;48.564;9.302;2023-07-08T02:52:09;22.10;53.11
66119;DHT22;52912;48.564;9.302;2023-07-08T02:54:35;22.06;53.24
66119;DHT22;52912;48.564;9.302;2023-07-08T02:57:00;21.98;54.07
66119;DHT22;52912;48.564;9.302;2023-07-08T02:59:26;21.88;53.83
66119;DHT22;52912;48.564;9.302;2023-07-08T03:01:51;21.67;54.33
66119;DHT22;52912;48.564;9.302;2023-07-08T03:04:18;21.65;54.68
66119;DHT22;52912;48.564;9.302;2023-07-08T03:06:44;21.61;54.90
66119;DHT22;52912;48.564;9.302;2023-07-08T03:09:11;21.53;55.48
66119;DHT22;52912;48.564;9.302;2023-07-08T03:11:36;21.50;56.13
66119;DHT22;52912;48.564;9.302;2023-07-08T03:14:02;21.36;56.46
66119;DHT22;52912;48.564;9.302;2023-07-08T03:16:27;21.30;57.18
66119;DHT22;52912;48.564;9.302;2023-07-08T03:18:53;21.06;57.66
66119;DHT22;52912;48.564;9.302;2023-07-08T03:21:20;21.15;57.17
66119;DHT22;52912;48.564;9.302;2023-07-08T03:23:47;21.06;57.34
66119;DHT22;52912;48.564;9.302;2023-07-08T03:26:14;20.85;58.34
66119;DHT22;52912;48.564;9.302;2023-07-08T03:28:40;21.03;57.07
66119;DHT22;52912;48.564;9.302;2023-07-08T03:31:08;21.12;56.89
66119;DHT22;52912;48.564;9.302;2023-07-08T03:33:34;21.09;56.91
66119;DHT22;52912;48.564;9.302;2023-07-08T03:36:00;20.96;57.75
66119;DHT22;52912;48.564;9.302;2023-07-08T03:38:27;20.92;57.94
66119;DHT22;52912;48.564;9.302;2023-07-08T03:40:52;20.96;58.36
66119;DHT22;52912;48.564;9.302;2023-07-08T03:43:18;20.94;58.48
66119;DHT22;52912;48.564;9.302;2023-07-08T03:45:43;20.91;58.35
66119;DHT22;52912;48.564;9.302;2023-07-08T03:48:10;21.06;58.00
66119;DHT22;52912;48.564;9.302;2023-07-08T03:50:35;21.09;57.70
66119;DHT22;52912;48.564;9.302;2023-07-08T03:53:01;21.32;56.57
66119;DHT22;52912;48.564;9.302;2023-07-08T03:55:28;21.36;56.49
66119;DHT22;52912;48.564;9.302;2023-07-08T03:57:53;21.33;56.61
66119;DHT22;52912;48.564;9.302;2023-07-08T04:00:19;21.30;56.57
66119;DHT22;52912;48.564;9.302;2023-07-08T04:02:45;21.30;56.61
66119;DHT22;52912;48.564;9.302;2023-07-08T04:05:13;21.32;57.04
66119;DHT22;52912;48.564;9.302;2023-07-08T04:07:39;21.26;57.18
66119;DHT22;52912;48.564;9.302;2023-07-08T04:10:05;21.24;57.37
66119;DHT22;52912;48.564;9.302;2023-07-08T04:12:32;21.43;58.36
66119;DHT22;52912;48.564;9.302;2023-07-08T04:14:58;21.20;59.97
66119;DHT22;52912;48.564;9.302;2023-07-08T04:17:23;21.22;59.67
66119;DHT22;52912;48.564;9.302;2023-07-08T04:19:49;21.27;59.21
66119;DHT22;52912;48.564;9.302;2023-07-08T04:22:14;21.13;60.34
66119;DHT22;52912;48.564;9.302;2023-07-08T04:24:40;21.20;59.86
66119;DHT22;52912;48.564;9.302;2023-07-08T04:27:07;21.12;61.51
66119;DHT22;52912;48.564;9.302;2023-07-08T04:29:34;21.12;60.94
66119;DHT22;52912;48.564;9.302;2023-07-08T04:32:00;21.06;61.30
66119;DHT22;52912;48.564;9.302;2023-07-08T04:34:25;21.07;63.06
66119;DHT22;52912;48.564;9.302;2023-07-08T04:36:51;21.02;63.21
66119;DHT22;52912;48.564;9.302;2023-07-08T04:39:16;21.05;63.46
66119;DHT22;52912;48.564;9.302;2023-07-08T04:41:41;20.99;62.95
66119;DHT22;52912;48.564;9.302;2023-07-08T04:44:07;20.92;63.90
66119;DHT22;52912;48.564;9.302;2023-07-08T04:46:37;20.84;64.40
66119;DHT22;52912;48.564;9.302;2023-07-08T04:49:04;20.82;64.54
66119;DHT22;52912;48.564;9.302;2023-07-08T04:51:30;20.96;63.46
66119;DHT22;52912;48.564;9.302;2023-07-08T04:53:55;20.98;63.97
66119;DHT22;52912;48.564;9.302;2023-07-08T04:56:21;21.10;64.01
66119;DHT22;52912;48.564;9.302;2023-07-08T04:58:47;21.27;62.32
66119;DHT22;52912;48.564;9.302;2023-07-08T05:01:12;21.23;62.30
66119;DHT22;52912;48.564;9.302;2023-07-08T05:03:39;21.32;63.53
66119;DHT22;52912;48.564;9.302;2023-07-08T05:06:04;21.50;63.42
66119;DHT22;52912;48.564;9.302;2023-07-08T05:08:30;21.53;64.24
66119;DHT22;52912;48.564;9.302;2023-07-08T05:10:55;21.44;64.23
66119;DHT22;52912;48.564;9.302;2023-07-08T05:13:21;21.40;64.83
66119;DHT22;52912;48.564;9.302;2023-07-08T05:15:47;21.41;63.31
66119;DHT22;52912;48.564;9.302;2023-07-08T05:18:13;21.39;63.27
66119;DHT22;52912;48.564;9.302;2023-07-08T05:20:40;21.51;62.82
66119;DHT22;52912;48.564;9.302;2023-07-08T05:23:05;21.53;62.89
66119;DHT22;52912;48.564;9.302;2023-07-08T05:25:32;21.34;64.00
66119;DHT22;52912;48.564;9.302;2023-07-08T05:27:58;21.37;64.49
66119;DHT22;52912;48.564;9.302;2023-07-08T05:30:23;21.47;64.73
66119;DHT22;52912;48.564;9.302;2023-07-08T05:32:49;21.37;65.29
66119;DHT22;52912;48.564;9.302;2023-07-08T05:35:14;21.47;65.21
66119;DHT22;52912;48.564;9.302;2023-07-08T05:37:41;21.55;65.12
66119;DHT22;52912;48.564;9.302;2023-07-08T05:40:08;21.73;64.48
66119;DHT22;52912;48.564;9.302;2023-07-08T05:42:33;21.68;64.11
66119;DHT22;52912;48.564;9.302;2023-07-08T05:44:59;21.96;63.65
66119;DHT22;52912;48.564;9.302;2023-07-08T05:47:25;21.78;64.06
66119;DHT22;52912;48.564;9.302;2023-07-08T05:49:50;21.85;63.77
66119;DHT22;52912;48.564;9.302;2023-07-08T05:52:16;21.84;63.16
66119;DHT22;52912;48.564;9.302;2023-07-08T05:54:42;21.71;63.58
66119;DHT22;52912;48.564;9.302;2023-07-08T05:57:10;21.69;63.68
66119;DHT22;52912;48.564;9.302;2023-07-08T05:59:36;21.78;63.72
66119;DHT22;52912;48.564;9.302;2023-07-08T06:02:02;21.64;62.68
66119;DHT22;52912;48.564;9.302;2023-07-08T06:04:28;21.68;62.66
66119;DHT22;52912;48.564;9.302;2023-07-08T06:06:53;21.60;62.67
66119;DHT22;52912;48.564;9.302;2023-07-08T06:09:19;21.84;62.32
66119;DHT22;52912;48.564;9.302;2023-07-08T06:11:46;21.94;62.48
66119;DHT22;52912;48.564;9.302;2023-07-08T06:14:11;21.89;62.53
66119;DHT22;52912;48.564;9.302;2023-07-08T06:16:37;21.75;62.57
66119;DHT22;52912;48.564;9.302;2023-07-08T06:19:03;21.71;62.82
66119;DHT22;52912;48.564;9.302;2023-07-08T06:21:28;21.82;62.80
66119;DHT22;52912;48.564;9.302;2023-07-08T06:23:53;21.92;62.63
66119;DHT22;52912;48.564;9.302;2023-07-08T06:26:19;21.89;62.51
66119;DHT22;52912;48.564;9.302;2023-07-08T06:28:46;21.86;62.79
66119;DHT22;52912;48.564;9.302;2023-07-08T06:31:11;22.03;62.66
66119;DHT22;52912;48.564;9.302;2023-07-08T06:33:37;22.06;62.48
66119;DHT22;52912;48.564;9.302;2023-07-08T06:36:02;22.03;63.02
66119;DHT22;52912;48.564;9.302;2023-07-08T06:38:28;21.96;63.46
66119;DHT22;52912;48.564;9.302;2023-07-08T06:40:53;22.05;63.75
66119;DHT22;52912;48.564;9.302;2023-07-08T06:43:19;22.02;63.74
66119;DHT22;52912;48.564;9.302;2023-07-08T06:45:46;22.19;63.46
66119;DHT22;52912;48.564;9.302;2023-07-08T06:48:11;22.22;63.01
66119;DHT22;52912;48.564;9.302;2023-07-08T06:50:37;22.20;63.04
66119;DHT22;52912;48.564;9.302;2023-07-08T06:53:03;22.36;62.76
66119;DHT22;52912;48.564;9.302;2023-07-08T06:55:28;22.46;62.87
66119;DHT22;52912;48.564;9.302;2023-07-08T06:57:54;22.58;62.23
66119;DHT22;52912;48.564;9.302;2023-07-08T07:00:19;22.64;62.55
66119;DHT22;52912;48.564;9.302;2023-07-08T07:02:46;22.85;62.56
66119;DHT22;52912;48.564;9.302;2023-07-08T07:05:12;22.82;62.60
66119;DHT22;52912;48.564;9.302;2023-07-08T07:07:37;23.02;62.66
66119;DHT22;52912;48.564;9.302;2023-07-08T07:10:03;23.02;62.19
66119;DHT22;52912;48.564;9.302;2023-07-08T07:12:28;23.16;61.90
66119;DHT22;52912;48.564;9.302;2023-07-08T07:14:54;23.24;61.56
66119;DHT22;52912;48.564;9.302;2023-07-08T07:17:20;23.47;61.26
66119;DHT22;52912;48.564;9.302;2023-07-08T07:19:47;23.67;61.02
66119;DHT22;52912;48.564;9.302;2023-07-08T07:22:12;23.57;60.44
66119;DHT22;52912;48.564;9.302;2023-07-08T07:24:38;23.65;60.31
66119;DHT22;52912;48.564;9.302;2023-07-08T07:27:04;23.77;61.17
66119;DHT22;52912;48.564;9.302;2023-07-08T07:29:39;23.88;59.64
66119;DHT22;52912;48.564;9.302;2023-07-08T07:32:06;23.99;59.65
66119;DHT22;52912;48.564;9.302;2023-07-08T07:34:32;24.13;59.57
66119;DHT22;52912;48.564;9.302;2023-07-08T07:36:59;24.23;60.18
66119;DHT22;52912;48.564;9.302;2023-07-08T07:39:24;24.26;59.77
66119;DHT22;52912;48.564;9.302;2023-07-08T07:41:50;24.22;59.79
66119;DHT22;52912;48.564;9.302;2023-07-08T07:44:15;24.37;59.86
66119;DHT22;52912;48.564;9.302;2023-07-08T07:46:40;24.40;59.62
66119;DHT22;52912;48.564;9.302;2023-07-08T07:49:06;24.37;60.30
66119;DHT22;52912;48.564;9.302;2023-07-08T07:51:31;24.34;59.95
66119;DHT22;52912;48.564;9.302;2023-07-08T07:53:58;24.39;60.72
66119;DHT22;52912;48.564;9.302;2023-07-08T07:56:24;24.44;61.97
66119;DHT22;52912;48.564;9.302;2023-07-08T07:58:49;24.44;62.20
66119;DHT22;52912;48.564;9.302;2023-07-08T08:01:14;24.30;62.71
66119;DHT22;52912;48.564;9.302;2023-07-08T08:03:40;24.43;62.45
66119;DHT22;52912;48.564;9.302;2023-07-08T08:06:05;23.98;62.84
66119;DHT22;52912;48.564;9.302;2023-07-08T08:08:31;24.05;63.43
66119;DHT22;52912;48.564;9.302;2023-07-08T08:10:58;24.17;62.62
66119;DHT22;52912;48.564;9.302;2023-07-08T08:13:23;24.30;62.60
66119;DHT22;52912;48.564;9.302;2023-07-08T08:15:54;24.36;61.69
66119;DHT22;52912;48.564;9.302;2023-07-08T08:18:20;24.54;62.19
66119;DHT22;52912;48.564;9.302;2023-07-08T08:20:45;24.33;61.57
66119;DHT22;52912;48.564;9.302;2023-07-08T08:23:11;24.43;61.48
66119;DHT22;52912;48.564;9.302;2023-07-08T08:25:36;24.65;60.30
66119;DHT22;52912;48.564;9.302;2023-07-08T08:28:03;24.78;60.83
66119;DHT22;52912;48.564;9.302;2023-07-08T08:30:31;24.78;60.24
66119;DHT22;52912;48.564;9.302;2023-07-08T08:32:57;24.77;60.45
66119;DHT22;52912;48.564;9.302;2023-07-08T08:35:22;24.72;60.49
66119;DHT22;52912;48.564;9.302;2023-07-08T08:37:48;24.70;60.67
66119;DHT22;52912;48.564;9.302;2023-07-08T08:40:15;24.84;60.09
66119;DHT22;52912;48.564;9.302;2023-07-08T08:42:44;24.92;59.62
66119;DHT22;52912;48.564;9.302;2023-07-08T08:45:16;24.98;59.16
66119;DHT22;52912;48.564;9.302;2023-07-08T08:47:44;25.04;59.36
66119;DHT22;52912;48.564;9.302;2023-07-08T08:50:24;25.15;59.20
66119;DHT22;52912;48.564;9.302;2023-07-08T08:52:52;25.12;59.41
66119;DHT22;52912;48.564;9.302;2023-07-08T08:55:18;25.22;59.32
66119;DHT22;52912;48.564;9.302;2023-07-08T08:57:49;25.29;59.13
66119;DHT22;52912;48.564;9.302;2023-07-08T09:00:42;25.36;58.56
66119;DHT22;52912;48.564;9.302;2023-07-08T09:03:12;25.26;58.68
66119;DHT22;52912;48.564;9.302;2023-07-08T09:05:40;25.30;58.67
66119;DHT22;52912;48.564;9.302;2023-07-08T09:08:13;25.32;58.79
66119;DHT22;52912;48.564;9.302;2023-07-08T09:10:44;25.33;58.52
66119;DHT22;52912;48.564;9.302;2023-07-08T09:13:16;25.47;58.59
66119;DHT22;52912;48.564;9.302;2023-07-08T09:15:45;25.51;58.98
66119;DHT22;52912;48.564;9.302;2023-07-08T09:18:18;25.47;59.50
66119;DHT22;52912;48.564;9.302;2023-07-08T09:20:44;25.53;57.39
66119;DHT22;52912;48.564;9.302;2023-07-08T09:23:17;25.78;56.83
66119;DHT22;52912;48.564;9.302;2023-07-08T09:25:49;25.81;56.96
66119;DHT22;52912;48.564;9.302;2023-07-08T09:28:16;25.59;57.16
66119;DHT22;52912;48.564;9.302;2023-07-08T09:30:45;25.64;56.75
66119;DHT22;52912;48.564;9.302;2023-07-08T09:33:11;25.34;58.99
66119;DHT22;52912;48.564;9.302;2023-07-08T09:35:41;25.42;58.74
66119;DHT22;52912;48.564;9.302;2023-07-08T09:38:08;25.63;58.02
66119;DHT22;52912;48.564;9.302;2023-07-08T09:40:34;25.84;57.90
66119;DHT22;52912;48.564;9.302;2023-07-08T09:43:02;25.82;56.93
66119;DHT22;52912;48.564;9.302;2023-07-08T09:45:28;25.94;56.39
66119;DHT22;52912;48.564;9.302;2023-07-08T09:47:57;26.01;56.88
66119;DHT22;52912;48.564;9.302;2023-07-08T09:50:26;26.18;56.67
66119;DHT22;52912;48.564;9.302;2023-07-08T09:52:53;25.89;57.16
66119;DHT22;52912;48.564;9.302;2023-07-08T09:55:19;25.80;57.03
66119;DHT22;52912;48.564;9.302;2023-07-08T09:57:45;26.16;56.49
66119;DHT22;52912;48.564;9.302;2023-07-08T10:00:14;26.35;56.09
66119;DHT22;52912;48.564;9.302;2023-07-08T10:02:42;26.40;57.26
66119;DHT22;52912;48.564;9.302;2023-07-08T10:05:17;26.61;55.72
66119;DHT22;52912;48.564;9.302;2023-07-08T10:07:44;27.85;52.96
66119;DHT22;52912;48.564;9.302;2023-07-08T10:10:15;27.53;53.10
66119;DHT22;52912;48.564;9.302;2023-07-08T10:12:41;27.51;53.97
66119;DHT22;52912;48.564;9.302;2023-07-08T10:15:14;27.76;54.62
66119;DHT22;52912;48.564;9.302;2023-07-08T10:17:42;28.42;52.71
66119;DHT22;52912;48.564;9.302;2023-07-08T10:20:12;28.64;52.36
66119;DHT22;52912;48.564;9.302;2023-07-08T10:22:42;28.91;52.28
66119;DHT22;52912;48.564;9.302;2023-07-08T10:25:20;28.70;52.56
66119;DHT22;52912;48.564;9.302;2023-07-08T10:27:54;28.84;52.20
66119;DHT22;52912;48.564;9.302;2023-07-08T10:30:23;28.99;51.87
66119;DHT22;52912;48.564;9.302;2023-07-08T10:33:07;28.61;53.00
66119;DHT22;52912;48.564;9.302;2023-07-08T10:35:40;28.56;52.84
66119;DHT22;52912;48.564;9.302;2023-07-08T10:38:26;29.27;51.78
66119;DHT22;52912;48.564;9.302;2023-07-08T10:40:56;29.47;51.23
66119;DHT22;52912;48.564;9.302;2023-07-08T10:43:44;29.56;51.65
66119;DHT22;52912;48.564;9.302;2023-07-08T10:46:21;30.00;50.67
66119;DHT22;52912;48.564;9.302;2023-07-08T10:49:00;30.16;50.16
66119;DHT22;52912;48.564;9.302;2023-07-08T10:51:38;30.81;50.32
66119;DHT22;52912;48.564;9.302;2023-07-08T10:54:18;30.80;48.92
66119;DHT22;52912;48.564;9.302;2023-07-08T10:56:51;30.59;47.88
66119;DHT22;52912;48.564;9.302;2023-07-08T10:59:30;30.61;48.08
66119;DHT22;52912;48.564;9.302;2023-07-08T11:02:11;30.47;48.62
66119;DHT22;52912;48.564;9.302;2023-07-08T11:04:54;30.68;49.87
66119;DHT22;52912;48.564;9.302;2023-07-08T11:07:30;31.07;47.94
66119;DHT22;52912;48.564;9.302;2023-07-08T11:10:00;31.33;48.00
66119;DHT22;52912;48.564;9.302;2023-07-08T11:12:32;31.47;48.03
66119;DHT22;52912;48.564;9.302;2023-07-08T11:15:02;31.73;47.72
66119;DHT22;52912;48.564;9.302;2023-07-08T11:17:32;32.00;47.18
66119;DHT22;52912;48.564;9.302;2023-07-08T11:20:03;31.76;47.75
66119;DHT22;52912;48.564;9.302;2023-07-08T11:22:34;32.67;47.00
66119;DHT22;52912;48.564;9.302;2023-07-08T11:25:02;32.57;46.04
66119;DHT22;52912;48.564;9.302;2023-07-08T11:27:32;32.35;46.32
66119;DHT22;52912;48.564;9.302;2023-07-08T11:30:02;32.79;46.02
66119;DHT22;52912;48.564;9.302;2023-07-08T11:32:31;32.98;45.59
66119;DHT22;52912;48.564;9.302;2023-07-08T11:35:00;32.94;46.01
66119;DHT22;52912;48.564;9.302;2023-07-08T11:37:28;33.65;44.59
66119;DHT22;52912;48.564;9.302;2023-07-08T11:39:58;33.96;44.97
66119;DHT22;52912;48.564;9.302;2023-07-08T11:42:33;34.07;43.52
66119;DHT22;52912;48.564;9.302;2023-07-08T11:45:00;34.37;42.56
66119;DHT22;52912;48.564;9.302;2023-07-08T11:47:33;34.41;42.70
66119;DHT22;52912;48.564;9.302;2023-07-08T11:50:00;34.59;42.69
66119;DHT22;52912;48.564;9.302;2023-07-08T11:52:26;33.98;44.67
66119;DHT22;52912;48.564;9.302;2023-07-08T11:55:03;34.31;43.11
66119;DHT22;52912;48.564;9.302;2023-07-08T11:57:42;34.49;42.43
66119;DHT22;52912;48.564;9.302;2023-07-08T12:00:15;34.22;43.04
66119;DHT22;52912;48.564;9.302;2023-07-08T12:02:49;34.38;42.84
66119;DHT22;52912;48.564;9.302;2023-07-08T12:05:14;34.60;42.08
66119;DHT22;52912;48.564;9.302;2023-07-08T12:07:41;34.38;42.79
66119;DHT22;52912;48.564;9.302;2023-07-08T12:10:15;33.89;42.73
66119;DHT22;52912;48.564;9.302;2023-07-08T12:12:42;34.37;42.66
66119;DHT22;52912;48.564;9.302;2023-07-08T12:15:12;34.21;42.50
66119;DHT22;52912;48.564;9.302;2023-07-08T12:17:41;34.62;41.69
66119;DHT22;52912;48.564;9.302;2023-07-08T12:20:16;34.60;42.43
66119;DHT22;52912;48.564;9.302;2023-07-08T12:22:42;34.72;41.58
66119;DHT22;52912;48.564;9.302;2023-07-08T12:25:14;35.18;41.22
66119;DHT22;52912;48.564;9.302;2023-07-08T12:27:40;35.33;40.79
66119;DHT22;52912;48.564;9.302;2023-07-08T12:30:07;35.53;40.81
66119;DHT22;52912;48.564;9.302;2023-07-08T12:32:34;35.75;40.33
66119;DHT22;52912;48.564;9.302;2023-07-08T12:34:59;36.01;39.83
66119;DHT22;52912;48.564;9.302;2023-07-08T12:37:25;35.66;40.26
66119;DHT22;52912;48.564;9.302;2023-07-08T12:39:55;35.85;40.90
66119;DHT22;52912;48.564;9.302;2023-07-08T12:42:21;35.83;40.44
66119;DHT22;52912;48.564;9.302;2023-07-08T12:44:47;36.03;40.64
66119;DHT22;52912;48.564;9.302;2023-07-08T12:47:13;36.52;40.12
66119;DHT22;52912;48.564;9.302;2023-07-08T12:49:38;36.79;39.50
66119;DHT22;52912;48.564;9.302;2023-07-08T12:52:04;36.72;39.85
66119;DHT22;52912;48.564;9.302;2023-07-08T12:54:29;36.10;40.70
66119;DHT22;52912;48.564;9.302;2023-07-08T12:56:55;36.40;39.83
66119;DHT22;52912;48.564;9.302;2023-07-08T12:59:23;36.47;39.73
66119;DHT22;52912;48.564;9.302;2023-07-08T13:01:49;36.48;39.60
66119;DHT22;52912;48.564;9.302;2023-07-08T13:04:16;36.83;39.33
66119;DHT22;52912;48.564;9.302;2023-07-08T13:06:43;35.38;40.97
66119;DHT22;52912;48.564;9.302;2023-07-08T13:09:21;36.04;40.32
66119;DHT22;52912;48.564;9.302;2023-07-08T13:11:48;36.49;40.02
66119;DHT22;52912;48.564;9.302;2023-07-08T13:14:15;36.96;39.93
66119;DHT22;52912;48.564;9.302;2023-07-08T13:16:43;35.79;40.31
66119;DHT22;52912;48.564;9.302;2023-07-08T13:19:10;35.70;40.50
66119;DHT22;52912;48.564;9.302;2023-07-08T13:21:36;35.34;41.23
66119;DHT22;52912;48.564;9.302;2023-07-08T13:24:06;36.23;40.23
66119;DHT22;52912;48.564;9.302;2023-07-08T13:26:32;35.89;40.76
66119;DHT22;52912;48.564;9.302;2023-07-08T13:29:03;36.52;39.52
66119;DHT22;52912;48.564;9.302;2023-07-08T13:31:33;36.68;39.07
66119;DHT22;52912;48.564;9.302;2023-07-08T13:34:06;36.62;39.88
66119;DHT22;52912;48.564;9.302;2023-07-08T13:36:35;36.65;39.43
66119;DHT22;52912;48.564;9.302;2023-07-08T13:39:02;37.49;38.05
66119;DHT22;52912;48.564;9.302;2023-07-08T13:41:29;37.90;38.61
66119;DHT22;52912;48.564;9.302;2023-07-08T13:43:54;37.79;37.96
66119;DHT22;52912;48.564;9.302;2023-07-08T13:46:30;36.94;38.52
66119;DHT22;52912;48.564;9.302;2023-07-08T13:49:02;36.79;38.68
66119;DHT22;52912;48.564;9.302;2023-07-08T13:51:30;37.89;37.57
66119;DHT22;52912;48.564;9.302;2023-07-08T13:53:58;37.96;37.12
66119;DHT22;52912;48.564;9.302;2023-07-08T13:56:28;37.49;37.74
66119;DHT22;52912;48.564;9.302;2023-07-08T13:59:06;37.83;37.56
66119;DHT22;52912;48.564;9.302;2023-07-08T14:01:34;38.03;37.22
66119;DHT22;52912;48.564;9.302;2023-07-08T14:04:01;37.92;37.22
66119;DHT22;52912;48.564;9.302;2023-07-08T14:06:29;38.48;37.23
66119;DHT22;52912;48.564;9.302;2023-07-08T14:08:58;38.58;36.69
66119;DHT22;52912;48.564;9.302;2023-07-08T14:11:24;37.78;37.03
66119;DHT22;52912;48.564;9.302;2023-07-08T14:13:50;38.44;36.21
66119;DHT22;52912;48.564;9.302;2023-07-08T14:16:27;38.51;36.45
66119;DHT22;52912;48.564;9.302;2023-07-08T14:18:53;37.57;36.89
66119;DHT22;52912;48.564;9.302;2023-07-08T14:21:20;37.13;36.84
66119;DHT22;52912;48.564;9.302;2023-07-08T14:23:46;37.45;36.87
66119;DHT22;52912;48.564;9.302;2023-07-08T14:26:12;37.51;37.28
66119;DHT22;52912;48.564;9.302;2023-07-08T14:28:37;37.89;36.82
66119;DHT22;52912;48.564;9.302;2023-07-08T14:31:04;37.85;36.32
66119;DHT22;52912;48.564;9.302;2023-07-08T14:33:29;37.93;37.39
66119;DHT22;52912;48.564;9.302;2023-07-08T14:35:55;37.94;36.36
66119;DHT22;52912;48.564;9.302;2023-07-08T14:38:22;38.62;36.36
66119;DHT22;52912;48.564;9.302;2023-07-08T14:40:47;38.21;36.42
66119;DHT22;52912;48.564;9.302;2023-07-08T14:43:16;37.92;36.22
66119;DHT22;52912;48.564;9.302;2023-07-08T14:45:44;37.99;36.92
66119;DHT22;52912;48.564;9.302;2023-07-08T14:48:12;37.17;37.53
66119;DHT22;52912;48.564;9.302;2023-07-08T14:50:38;37.53;36.92
66119;DHT22;52912;48.564;9.302;2023-07-08T14:53:04;36.94;36.74
66119;DHT22;52912;48.564;9.302;2023-07-08T14:55:31;36.83;37.73
66119;DHT22;52912;48.564;9.302;2023-07-08T14:57:57;37.83;36.83
66119;DHT22;52912;48.564;9.302;2023-07-08T15:00:23;37.86;37.09
66119;DHT22;52912;48.564;9.302;2023-07-08T15:02:50;37.58;36.63
66119;DHT22;52912;48.564;9.302;2023-07-08T15:05:19;38.09;36.27
66119;DHT22;52912;48.564;9.302;2023-07-08T15:07:48;37.11;37.01
66119;DHT22;52912;48.564;9.302;2023-07-08T15:10:14;37.92;36.41
66119;DHT22;52912;48.564;9.302;2023-07-08T15:12:40;38.45;36.03
66119;DHT22;52912;48.564;9.302;2023-07-08T15:15:15;38.30;36.45
66119;DHT22;52912;48.564;9.302;2023-07-08T15:17:41;37.90;36.34
66119;DHT22;52912;48.564;9.302;2023-07-08T15:20:11;37.89;36.41
66119;DHT22;52912;48.564;9.302;2023-07-08T15:22:37;37.47;36.30
66119;DHT22;52912;48.564;9.302;2023-07-08T15:25:03;37.85;36.38
66119;DHT22;52912;48.564;9.302;2023-07-08T15:27:28;38.23;35.76
66119;DHT22;52912;48.564;9.302;2023-07-08T15:29:55;38.24;35.92
66119;DHT22;52912;48.564;9.302;2023-07-08T15:32:21;37.93;36.14